sensor_id;sensor_type;location;lat;lon;timestamp;P1;durP1;ratioP1;P2;durP2;ratioP2
70457;SDS011;57919;56.194;95.716;2022-09-12T00:03:09;17.97;;;10.97;;
70457;SDS011;57919;56.194;95.716;2022-09-12T00:13:11;16.90;;;9.80;;
70457;SDS011;57919;56.194;95.716;2022-09-12T00:23:13;20.30;;;9.60;;
70457;SDS011;57919;56.194;95.716;2022-09-12T00:33:16;19.80;;;10.43;;
70457;SDS011;57919;56.194;95.716;2022-09-12T00:53:43;17.20;;;9.77;;
70457;SDS011;57919;56.194;95.716;2022-09-12T01:03:50;27.10;;;14.20;;
70457;SDS011;57919;56.194;95.716;2022-09-12T01:13:52;24.00;;;12.02;;
70457;SDS011;57919;56.194;95.716;2022-09-12T01:34:26;47.40;;;23.07;;
70457;SDS011;57919;56.194;95.716;2022-09-12T01:55:04;78.50;;;38.40;;
70457;SDS011;57919;56.194;95.716;2022-09-12T02:05:20;47.90;;;26.30;;
70457;SDS011;57919;56.194;95.716;2022-09-12T02:15:38;21.10;;;12.93;;
70457;SDS011;57919;56.194;95.716;2022-09-12T02:25:43;27.47;;;14.63;;
70457;SDS011;57919;56.194;95.716;2022-09-12T02:46:39;19.50;;;12.50;;
70457;SDS011;57919;56.194;95.716;2022-09-12T02:56:48;15.63;;;9.32;;
70457;SDS011;57919;56.194;95.716;2022-09-12T03:06:54;8.23;;;5.10;;
70457;SDS011;57919;56.194;95.716;2022-09-12T03:27:30;13.37;;;5.60;;
70457;SDS011;57919;56.194;95.716;2022-09-12T03:37:33;11.70;;;5.70;;
70457;SDS011;57919;56.194;95.716;2022-09-12T03:47:35;10.48;;;6.20;;
70457;SDS011;57919;56.194;95.716;2022-09-12T03:57:37;11.73;;;6.70;;
70457;SDS011;57919;56.194;95.716;2022-09-12T04:07:39;14.93;;;6.97;;
70457;SDS011;57919;56.194;95.716;2022-09-12T04:17:41;13.10;;;7.23;;
70457;SDS011;57919;56.194;95.716;2022-09-12T04:27:43;11.60;;;7.00;;
70457;SDS011;57919;56.194;95.716;2022-09-12T04:37:45;12.77;;;6.50;;
70457;SDS011;57919;56.194;95.716;2022-09-12T04:47:47;9.97;;;5.77;;
70457;SDS011;57919;56.194;95.716;2022-09-12T04:57:50;15.03;;;8.90;;
70457;SDS011;57919;56.194;95.716;2022-09-12T05:07:53;11.30;;;4.20;;
70457;SDS011;57919;56.194;95.716;2022-09-12T05:17:56;6.43;;;3.17;;
70457;SDS011;57919;56.194;95.716;2022-09-12T05:27:58;6.20;;;3.08;;
70457;SDS011;57919;56.194;95.716;2022-09-12T05:38:00;6.27;;;2.80;;
70457;SDS011;57919;56.194;95.716;2022-09-12T05:48:02;5.97;;;2.67;;
70457;SDS011;57919;56.194;95.716;2022-09-12T05:58:03;11.23;;;2.80;;
70457;SDS011;57919;56.194;95.716;2022-09-12T06:08:05;5.87;;;2.77;;
70457;SDS011;57919;56.194;95.716;2022-09-12T06:18:07;5.88;;;2.50;;
70457;SDS011;57919;56.194;95.716;2022-09-12T06:28:09;5.40;;;2.63;;
70457;SDS011;57919;56.194;95.716;2022-09-12T06:38:11;6.83;;;3.40;;
70457;SDS011;57919;56.194;95.716;2022-09-12T06:48:13;8.87;;;3.60;;
70457;SDS011;57919;56.194;95.716;2022-09-12T06:58:15;7.17;;;2.83;;
70457;SDS011;57919;56.194;95.716;2022-09-12T07:08:16;8.13;;;4.30;;
70457;SDS011;57919;56.194;95.716;2022-09-12T07:18:18;8.87;;;5.53;;
70457;SDS011;57919;56.194;95.716;2022-09-12T07:28:22;6.83;;;2.73;;
70457;SDS011;57919;56.194;95.716;2022-09-12T07:38:28;6.93;;;2.90;;
70457;SDS011;57919;56.194;95.716;2022-09-12T07:48:30;8.03;;;5.53;;
70457;SDS011;57919;56.194;95.716;2022-09-12T07:58:32;15.70;;;13.02;;
70457;SDS011;57919;56.194;95.716;2022-09-12T08:08:37;7.50;;;3.00;;
70457;SDS011;57919;56.194;95.716;2022-09-12T08:18:39;6.90;;;3.60;;
70457;SDS011;57919;56.194;95.716;2022-09-12T08:28:42;14.43;;;4.27;;
70457;SDS011;57919;56.194;95.716;2022-09-12T08:38:46;10.77;;;5.13;;
70457;SDS011;57919;56.194;95.716;2022-09-12T08:48:50;9.40;;;3.60;;
70457;SDS011;57919;56.194;95.716;2022-09-12T08:58:52;7.63;;;4.67;;
70457;SDS011;57919;56.194;95.716;2022-09-12T09:19:09;23.23;;;11.70;;
70457;SDS011;57919;56.194;95.716;2022-09-12T09:29:18;135.70;;;53.33;;
70457;SDS011;57919;56.194;95.716;2022-09-12T09:49:50;104.87;;;40.57;;
70457;SDS011;57919;56.194;95.716;2022-09-12T09:59:51;19.07;;;7.67;;
70457;SDS011;57919;56.194;95.716;2022-09-12T10:30:27;10.80;;;3.90;;
70457;SDS011;57919;56.194;95.716;2022-09-12T10:40:30;12.97;;;6.13;;
70457;SDS011;57919;56.194;95.716;2022-09-12T10:50:41;7.53;;;3.80;;
70457;SDS011;57919;56.194;95.716;2022-09-12T11:00:44;27.37;;;11.60;;
70457;SDS011;57919;56.194;95.716;2022-09-12T11:42:21;9.40;;;5.30;;
70457;SDS011;57919;56.194;95.716;2022-09-12T11:52:32;11.40;;;6.10;;
70457;SDS011;57919;56.194;95.716;2022-09-12T12:02:42;26.27;;;17.83;;
70457;SDS011;57919;56.194;95.716;2022-09-12T12:13:17;26.30;;;10.85;;
70457;SDS011;57919;56.194;95.716;2022-09-12T12:23:30;36.17;;;14.80;;
70457;SDS011;57919;56.194;95.716;2022-09-12T12:43:40;36.67;;;21.57;;
70457;SDS011;57919;56.194;95.716;2022-09-12T12:53:42;30.83;;;14.93;;
70457;SDS011;57919;56.194;95.716;2022-09-12T13:03:55;28.52;;;14.38;;
70457;SDS011;57919;56.194;95.716;2022-09-12T13:14:00;14.70;;;8.03;;
70457;SDS011;57919;56.194;95.716;2022-09-12T13:24:14;17.10;;;6.40;;
70457;SDS011;57919;56.194;95.716;2022-09-12T13:34:41;28.13;;;15.40;;
70457;SDS011;57919;56.194;95.716;2022-09-12T13:54:55;76.22;;;40.90;;
70457;SDS011;57919;56.194;95.716;2022-09-12T14:04:59;56.00;;;33.63;;
70457;SDS011;57919;56.194;95.716;2022-09-12T14:15:15;71.17;;;39.90;;
70457;SDS011;57919;56.194;95.716;2022-09-12T14:25:22;69.60;;;38.70;;
70457;SDS011;57919;56.194;95.716;2022-09-12T14:35:26;63.87;;;33.97;;
70457;SDS011;57919;56.194;95.716;2022-09-12T14:45:28;80.13;;;39.88;;
70457;SDS011;57919;56.194;95.716;2022-09-12T14:55:33;65.37;;;31.87;;
70457;SDS011;57919;56.194;95.716;2022-09-12T15:05:49;20.87;;;9.43;;
70457;SDS011;57919;56.194;95.716;2022-09-12T15:15:52;11.37;;;4.37;;
70457;SDS011;57919;56.194;95.716;2022-09-12T15:25:58;6.33;;;3.40;;
70457;SDS011;57919;56.194;95.716;2022-09-12T15:36:00;7.60;;;3.38;;
70457;SDS011;57919;56.194;95.716;2022-09-12T15:46:02;7.87;;;3.43;;
70457;SDS011;57919;56.194;95.716;2022-09-12T15:56:07;7.67;;;2.97;;
70457;SDS011;57919;56.194;95.716;2022-09-12T16:06:08;8.37;;;3.10;;
70457;SDS011;57919;56.194;95.716;2022-09-12T16:16:11;6.80;;;3.27;;
70457;SDS011;57919;56.194;95.716;2022-09-12T16:26:13;10.25;;;3.05;;
70457;SDS011;57919;56.194;95.716;2022-09-12T16:36:16;5.93;;;2.63;;
70457;SDS011;57919;56.194;95.716;2022-09-12T16:46:21;7.00;;;3.20;;
70457;SDS011;57919;56.194;95.716;2022-09-12T16:56:25;6.70;;;2.47;;
70457;SDS011;57919;56.194;95.716;2022-09-12T17:06:27;7.13;;;2.87;;
70457;SDS011;57919;56.194;95.716;2022-09-12T17:16:29;5.15;;;2.10;;
70457;SDS011;57919;56.194;95.716;2022-09-12T17:26:31;7.77;;;1.00;;
70457;SDS011;57919;56.194;95.716;2022-09-12T17:36:33;4.97;;;0.40;;
70457;SDS011;57919;56.194;95.716;2022-09-12T17:46:36;2.67;;;0.20;;
70457;SDS011;57919;56.194;95.716;2022-09-12T17:56:38;1.87;;;0.20;;
70457;SDS011;57919;56.194;95.716;2022-09-12T18:06:40;3.00;;;0.20;;
70457;SDS011;57919;56.194;95.716;2022-09-12T18:16:47;2.33;;;0.50;;
70457;SDS011;57919;56.194;95.716;2022-09-12T18:26:51;4.70;;;0.90;;
70457;SDS011;57919;56.194;95.716;2022-09-12T18:36:53;3.43;;;0.53;;
70457;SDS011;57919;56.194;95.716;2022-09-12T18:46:55;5.00;;;0.80;;
70457;SDS011;57919;56.194;95.716;2022-09-12T18:56:57;3.95;;;0.63;;
70457;SDS011;57919;56.194;95.716;2022-09-12T19:06:59;1.97;;;0.30;;
70457;SDS011;57919;56.194;95.716;2022-09-12T19:17:01;3.47;;;0.30;;
70457;SDS011;57919;56.194;95.716;2022-09-12T19:27:03;2.20;;;0.40;;
70457;SDS011;57919;56.194;95.716;2022-09-12T19:37:05;3.60;;;0.50;;
70457;SDS011;57919;56.194;95.716;2022-09-12T19:47:07;6.55;;;1.42;;
70457;SDS011;57919;56.194;95.716;2022-09-12T19:57:11;5.47;;;0.80;;
70457;SDS011;57919;56.194;95.716;2022-09-12T20:07:13;5.43;;;0.87;;
70457;SDS011;57919;56.194;95.716;2022-09-12T20:17:15;1.47;;;0.47;;
70457;SDS011;57919;56.194;95.716;2022-09-12T20:27:17;11.87;;;1.17;;
70457;SDS011;57919;56.194;95.716;2022-09-12T20:37:19;4.65;;;0.60;;
70457;SDS011;57919;56.194;95.716;2022-09-12T20:47:21;1.80;;;0.40;;
70457;SDS011;57919;56.194;95.716;2022-09-12T20:57:23;2.37;;;0.30;;
70457;SDS011;57919;56.194;95.716;2022-09-12T21:07:25;1.47;;;0.20;;
70457;SDS011;57919;56.194;95.716;2022-09-12T21:17:27;2.93;;;0.30;;
70457;SDS011;57919;56.194;95.716;2022-09-12T21:27:29;3.42;;;0.35;;
70457;SDS011;57919;56.194;95.716;2022-09-12T21:37:31;3.57;;;0.40;;
70457;SDS011;57919;56.194;95.716;2022-09-12T21:47:33;2.93;;;0.20;;
70457;SDS011;57919;56.194;95.716;2022-09-12T21:57:35;1.08;;;0.20;;
70457;SDS011;57919;56.194;95.716;2022-09-12T22:07:37;4.70;;;0.33;;
70457;SDS011;57919;56.194;95.716;2022-09-12T22:17:39;4.57;;;0.20;;
70457;SDS011;57919;56.194;95.716;2022-09-12T22:27:41;1.63;;;0.17;;
70457;SDS011;57919;56.194;95.716;2022-09-12T22:37:42;4.30;;;0.70;;
70457;SDS011;57919;56.194;95.716;2022-09-12T22:47:44;5.47;;;0.85;;
70457;SDS011;57919;56.194;95.716;2022-09-12T22:57:46;7.23;;;2.00;;
70457;SDS011;57919;56.194;95.716;2022-09-12T23:07:49;7.23;;;1.67;;
70457;SDS011;57919;56.194;95.716;2022-09-12T23:17:51;1.13;;;0.32;;
70457;SDS011;57919;56.194;95.716;2022-09-12T23:27:53;0.93;;;0.10;;
70457;SDS011;57919;56.194;95.716;2022-09-12T23:37:55;3.03;;;0.47;;
70457;SDS011;57919;56.194;95.716;2022-09-12T23:47:56;1.67;;;0.30;;
70457;SDS011;57919;56.194;95.716;2022-09-12T23:57:58;8.83;;;0.33;;
